Time;durP1;ratioP1;P1;durP2;ratioP2;P2;SDS_P1;SDS_P2;PMS_P1;PMS_P2;Temp;Humidity;BMP_temperature;BMP_pressure;BME280_temperature;BME280_humidity;BME280_pressure;Samples;Min_cycle;Max_cycle;Signal;HPM_P1;HPM_P2
2021/05/02 00:00:15;;;;;;;1.50;1.50;;;11.90;99.90;;;;;;5027912;28;20187;-80
2021/05/02 00:02:42;;;;;;;131.20;4.93;;;11.80;99.90;;;;;;5030044;28;20196;-79
2021/05/02 00:05:10;;;;;;;9.20;2.30;;;11.60;99.90;;;;;;5029604;28;20294;-80
2021/05/02 00:07:37;;;;;;;23.95;2.58;;;11.50;99.90;;;;;;5021772;28;20221;-79
2021/05/02 00:10:05;;;;;;;1.80;1.70;;;11.40;99.90;;;;;;5028932;28;20207;-80
2021/05/02 00:12:32;;;;;;;1.60;1.58;;;11.30;99.90;;;;;;5028568;28;20225;-77
2021/05/02 00:15:00;;;;;;;1.77;1.67;;;11.30;99.90;;;;;;5028897;28;20216;-80
2021/05/02 00:17:27;;;;;;;1.70;1.60;;;11.30;99.90;;;;;;5027952;28;20546;-80
2021/05/02 00:19:54;;;;;;;1.52;1.48;;;11.30;99.90;;;;;;5032340;28;20206;-78
2021/05/02 00:22:22;;;;;;;1.50;1.48;;;11.40;99.90;;;;;;5026277;28;20748;-79
2021/05/02 00:24:49;;;;;;;1.60;1.55;;;11.40;99.90;;;;;;5032963;28;20219;-81
2021/05/02 00:27:16;;;;;;;1.45;1.40;;;11.40;99.90;;;;;;5027465;28;20717;-78
2021/05/02 00:29:44;;;;;;;1.60;1.50;;;11.50;99.90;;;;;;5031616;28;20196;-80
2021/05/02 00:32:13;;;;;;;1.75;1.40;;;11.60;99.90;;;;;;5028499;28;20227;-78
2021/05/02 00:34:40;;;;;;;3.35;1.95;;;11.70;99.90;;;;;;5036519;28;20561;-79
2021/05/02 00:37:07;;;;;;;1.58;1.55;;;11.80;99.90;;;;;;5032223;28;20725;-76
2021/05/02 00:39:35;;;;;;;1.50;1.40;;;11.80;99.90;;;;;;5025345;28;20582;-78
2021/05/02 00:42:04;;;;;;;1.40;1.40;;;11.90;99.90;;;;;;5027086;28;20211;-78
2021/05/02 00:44:41;;;;;;;1.50;1.50;;;12.00;99.90;;;;;;5027692;28;20236;-80
2021/05/02 00:47:12;;;;;;;1.70;1.60;;;12.00;99.90;;;;;;5025268;28;20223;-77
2021/05/02 00:49:43;;;;;;;1.33;1.33;;;12.10;99.90;;;;;;5026495;28;20200;-76
2021/05/02 00:52:16;;;;;;;1.33;1.33;;;12.10;99.90;;;;;;5026421;28;20212;-76
2021/05/02 00:54:48;;;;;;;1.58;1.50;;;12.10;99.90;;;;;;5045843;22;20238;-75
2021/05/02 00:57:23;;;;;;;1.85;1.50;;;12.10;99.90;;;;;;5045689;28;20222;-75
2021/05/02 00:59:54;;;;;;;1.40;1.40;;;12.10;99.90;;;;;;5050220;28;20268;-74
2021/05/02 01:02:22;;;;;;;1.50;1.40;;;12.10;99.90;;;;;;5051562;28;20647;-75
2021/05/02 01:04:53;;;;;;;1.40;1.40;;;12.10;99.90;;;;;;5044823;28;20286;-75
2021/05/02 01:07:22;;;;;;;1.20;1.20;;;12.20;99.90;;;;;;5047730;28;20215;-75
2021/05/02 01:09:49;;;;;;;1.40;1.40;;;12.20;99.90;;;;;;5048688;28;20257;-74
2021/05/02 01:12:19;;;;;;;1.35;1.35;;;12.20;99.90;;;;;;5047515;28;20222;-75
2021/05/02 01:14:52;;;;;;;1.35;1.35;;;12.20;99.90;;;;;;5049993;28;20221;-75
2021/05/02 01:17:24;;;;;;;1.40;1.40;;;12.10;99.90;;;;;;5042898;28;20268;-75
2021/05/02 01:19:52;;;;;;;1.80;1.70;;;12.10;99.90;;;;;;5054134;28;20241;-75
2021/05/02 01:22:21;;;;;;;1.40;1.40;;;12.10;99.90;;;;;;5048063;28;20708;-75
2021/05/02 01:24:51;;;;;;;1.42;1.40;;;12.00;99.90;;;;;;5052810;28;20219;-75
2021/05/02 01:27:28;;;;;;;2.10;1.77;;;12.00;99.90;;;;;;5050445;28;20354;-75
2021/05/02 01:29:55;;;;;;;1.40;1.40;;;12.00;99.90;;;;;;5051076;28;20202;-75
2021/05/02 01:32:23;;;;;;;1.23;1.23;;;12.00;99.90;;;;;;5047046;28;21186;-75
2021/05/02 01:34:50;;;;;;;1.40;1.40;;;12.00;99.90;;;;;;5048479;28;20647;-75
2021/05/02 01:37:17;;;;;;;1.40;1.40;;;12.00;99.90;;;;;;5043750;28;20257;-75
2021/05/02 01:39:44;;;;;;;1.20;1.20;;;11.90;99.90;;;;;;5052532;28;20222;-75
2021/05/02 01:42:11;;;;;;;1.20;1.20;;;12.00;99.90;;;;;;5050567;28;20606;-74
2021/05/02 01:44:38;;;;;;;1.30;1.30;;;11.90;99.90;;;;;;5049450;28;20219;-75
2021/05/02 01:47:11;;;;;;;1.40;1.40;;;11.90;99.90;;;;;;5047296;28;20225;-74
2021/05/02 01:49:42;;;;;;;1.35;1.30;;;11.90;99.90;;;;;;5047364;28;20225;-75
2021/05/02 01:52:09;;;;;;;1.30;1.20;;;11.80;99.90;;;;;;5052617;28;20288;-75
2021/05/02 01:54:37;;;;;;;1.75;1.50;;;11.90;99.90;;;;;;5049857;28;20225;-75
2021/05/02 01:57:07;;;;;;;1.40;1.40;;;11.80;99.90;;;;;;5045840;28;20219;-75
2021/05/02 01:59:35;;;;;;;1.42;1.20;;;11.80;99.90;;;;;;5048894;28;20677;-75
2021/05/02 02:02:03;;;;;;;1.40;1.40;;;11.80;99.90;;;;;;5047371;28;20759;-76
2021/05/02 02:04:34;;;;;;;1.20;1.20;;;11.70;99.90;;;;;;5045479;28;20245;-75
2021/05/02 02:07:01;;;;;;;1.48;1.38;;;11.60;99.90;;;;;;5048170;28;20276;-75
2021/05/02 02:09:29;;;;;;;38.47;3.00;;;11.60;99.90;;;;;;5053022;28;20499;-75
2021/05/02 02:11:56;;;;;;;1.20;1.20;;;11.60;99.90;;;;;;5047526;28;20471;-75
2021/05/02 02:14:23;;;;;;;1.42;1.42;;;11.60;99.90;;;;;;5050965;28;20218;-75
2021/05/02 02:16:52;;;;;;;1.10;1.10;;;11.50;99.90;;;;;;5050357;28;20284;-75
2021/05/02 02:19:18;;;;;;;1.45;1.40;;;11.50;99.90;;;;;;5055530;28;20550;-75
2021/05/02 02:21:48;;;;;;;1.27;1.27;;;11.40;99.90;;;;;;5051179;28;20345;-74
2021/05/02 02:24:19;;;;;;;1.10;1.10;;;11.30;99.90;;;;;;5057321;28;20682;-75
2021/05/02 02:26:54;;;;;;;1.40;1.40;;;11.20;99.90;;;;;;5045096;28;20229;-75
2021/05/02 02:29:23;;;;;;;1.15;1.15;;;11.10;99.90;;;;;;5045382;28;20206;-74
2021/05/02 02:31:51;;;;;;;1.00;1.00;;;11.00;99.90;;;;;;5045288;28;20280;-75
2021/05/02 02:34:22;;;;;;;1.35;1.35;;;10.90;99.90;;;;;;5046813;28;20220;-75
2021/05/02 02:36:49;;;;;;;1.30;1.30;;;10.90;99.90;;;;;;5047581;28;20250;-75
2021/05/02 02:39:17;;;;;;;1.30;1.30;;;10.80;99.90;;;;;;5047150;28;20190;-75
2021/05/02 02:41:44;;;;;;;1.88;1.70;;;10.80;99.90;;;;;;5039426;28;20222;-75
2021/05/02 02:44:12;;;;;;;1.40;1.25;;;10.70;99.90;;;;;;5046329;28;20309;-75
2021/05/02 02:46:42;;;;;;;1.40;1.40;;;10.60;99.90;;;;;;5044138;28;20260;-75
2021/05/02 02:49:13;;;;;;;1.58;1.48;;;10.60;99.90;;;;;;5044103;28;20212;-75
2021/05/02 02:51:41;;;;;;;1.60;1.50;;;10.60;99.90;;;;;;5042145;28;20748;-75
2021/05/02 02:54:11;;;;;;;1.23;1.23;;;10.60;99.90;;;;;;5051531;28;20605;-75
2021/05/02 02:56:42;;;;;;;1.70;1.60;;;10.60;99.90;;;;;;5044763;28;20226;-75
2021/05/02 02:59:16;;;;;;;1.40;1.40;;;10.60;99.90;;;;;;5053082;28;20256;-75
2021/05/02 03:01:47;;;;;;;1.08;1.08;;;10.60;99.90;;;;;;5050103;28;20521;-75
2021/05/02 03:04:17;;;;;;;1.42;1.40;;;10.60;99.90;;;;;;5050145;28;20229;-75
2021/05/02 03:06:45;;;;;;;1.50;1.50;;;10.60;99.90;;;;;;5049026;28;20601;-75
2021/05/02 03:09:15;;;;;;;1.30;1.30;;;10.50;99.90;;;;;;5045410;28;20198;-75
2021/05/02 03:11:43;;;;;;;1.52;1.50;;;10.50;99.90;;;;;;5048292;28;20214;-75
2021/05/02 03:14:12;;;;;;;1.45;1.35;;;10.50;99.90;;;;;;5049693;28;20693;-75
2021/05/02 03:16:40;;;;;;;1.48;1.45;;;10.50;99.90;;;;;;5045865;28;20226;-75
2021/05/02 03:19:14;;;;;;;1.20;1.20;;;10.50;99.90;;;;;;5053023;28;20203;-75
2021/05/02 03:21:50;;;;;;;1.40;1.40;;;10.50;99.90;;;;;;5049083;28;20535;-75
2021/05/02 03:24:25;;;;;;;1.70;1.60;;;10.50;99.90;;;;;;5045678;28;20266;-75
2021/05/02 03:27:00;;;;;;;2.05;1.33;;;10.50;99.90;;;;;;5049879;28;20260;-75
2021/05/02 03:29:33;;;;;;;1.65;1.55;;;10.50;99.90;;;;;;5054540;28;20584;-76
2021/05/02 03:32:05;;;;;;;1.40;1.40;;;10.50;99.90;;;;;;5055442;28;20257;-75
2021/05/02 03:34:33;;;;;;;1.40;1.40;;;10.50;99.90;;;;;;5051629;28;20272;-75
2021/05/02 03:37:04;;;;;;;1.60;1.60;;;10.50;99.90;;;;;;5042045;28;20218;-75
2021/05/02 03:39:31;;;;;;;1.50;1.50;;;10.60;99.90;;;;;;5043869;28;20764;-74
2021/05/02 03:41:58;;;;;;;1.45;1.45;;;10.60;99.90;;;;;;5041200;28;20218;-75
2021/05/02 03:44:24;;;;;;;1.30;1.30;;;10.70;99.90;;;;;;5042134;28;20218;-75
2021/05/02 03:46:51;;;;;;;1.30;1.30;;;10.80;99.90;;;;;;5040433;28;20226;-74
2021/05/02 03:49:17;;;;;;;1.77;1.70;;;10.80;99.90;;;;;;5045564;28;20191;-75
2021/05/02 03:51:44;;;;;;;1.65;1.60;;;10.80;99.90;;;;;;5054588;28;20272;-75
2021/05/02 03:54:11;;;;;;;1.67;1.60;;;10.80;99.90;;;;;;5045205;28;20704;-74
2021/05/02 03:56:39;;;;;;;1.52;1.52;;;10.70;99.90;;;;;;5049980;28;20214;-75
2021/05/02 03:59:09;;;;;;;1.65;1.55;;;10.70;99.90;;;;;;5050857;28;20221;-75
2021/05/02 04:01:36;;;;;;;1.48;1.48;;;10.60;99.90;;;;;;5049424;28;20509;-75
2021/05/02 04:04:03;;;;;;;1.33;1.33;;;10.70;99.90;;;;;;5045979;28;20225;-75
2021/05/02 04:06:29;;;;;;;1.40;1.40;;;10.70;99.90;;;;;;5045197;28;20227;-75
2021/05/02 04:08:56;;;;;;;1.70;1.60;;;10.80;99.90;;;;;;5044517;28;20203;-75
2021/05/02 04:11:24;;;;;;;1.27;1.20;;;10.90;99.90;;;;;;5055396;28;20739;-74
2021/05/02 04:13:50;;;;;;;1.40;1.30;;;11.00;99.90;;;;;;5049357;28;20669;-75
2021/05/02 04:16:18;;;;;;;1.63;1.52;;;11.00;99.90;;;;;;5044623;28;20227;-74
2021/05/02 04:18:44;;;;;;;1.50;1.40;;;11.00;99.90;;;;;;5052712;28;20580;-75
2021/05/02 04:21:11;;;;;;;1.38;1.38;;;11.00;99.90;;;;;;5047426;28;20665;-75
2021/05/02 04:23:38;;;;;;;2.20;1.77;;;11.00;99.90;;;;;;5049902;28;20281;-74
2021/05/02 04:26:05;;;;;;;1.48;1.48;;;10.90;99.90;;;;;;5050129;28;20263;-75
2021/05/02 04:28:32;;;;;;;1.33;1.33;;;10.90;99.90;;;;;;5049046;28;20269;-75
2021/05/02 04:30:59;;;;;;;1.75;1.70;;;10.90;99.90;;;;;;5045420;28;20209;-75
2021/05/02 04:33:25;;;;;;;1.50;1.40;;;10.80;99.90;;;;;;5052727;28;20275;-74
2021/05/02 04:35:52;;;;;;;1.40;1.30;;;10.80;99.90;;;;;;5055551;28;20218;-75
2021/05/02 04:38:18;;;;;;;1.55;1.55;;;10.70;99.90;;;;;;5053537;28;20700;-75
2021/05/02 04:40:45;;;;;;;1.50;1.50;;;10.70;99.90;;;;;;5050148;28;20222;-75
2021/05/02 04:43:12;;;;;;;1.48;1.48;;;10.70;99.90;;;;;;5061651;28;20244;-75
2021/05/02 04:45:39;;;;;;;1.25;1.25;;;10.70;99.90;;;;;;5049375;28;20230;-75
2021/05/02 04:48:07;;;;;;;1.30;1.30;;;10.70;99.90;;;;;;5051836;28;20228;-75
2021/05/02 04:50:33;;;;;;;1.40;1.40;;;10.80;99.90;;;;;;5052071;28;20268;-75
2021/05/02 04:53:00;;;;;;;1.48;1.40;;;10.80;99.90;;;;;;5058560;28;20226;-75
2021/05/02 04:55:27;;;;;;;1.40;1.40;;;10.90;99.90;;;;;;5052519;28;20219;-75
2021/05/02 04:57:54;;;;;;;1.70;1.60;;;11.00;99.90;;;;;;5049823;28;20214;-75
2021/05/02 05:00:24;;;;;;;1.58;1.58;;;11.00;99.90;;;;;;5046506;28;20515;-75
2021/05/02 05:02:51;;;;;;;1.70;1.60;;;10.90;99.90;;;;;;5048335;28;20226;-75
2021/05/02 05:05:18;;;;;;;1.70;1.60;;;10.90;99.90;;;;;;5045789;28;20648;-75
2021/05/02 05:07:45;;;;;;;1.33;1.33;;;10.90;99.90;;;;;;5051421;28;20269;-75
2021/05/02 05:10:12;;;;;;;1.50;1.50;;;11.00;99.90;;;;;;5049260;28;20673;-74
2021/05/02 05:12:40;;;;;;;1.20;1.20;;;11.00;99.90;;;;;;5051575;28;20215;-75
2021/05/02 05:15:08;;;;;;;1.60;1.50;;;11.10;99.90;;;;;;5053550;28;20218;-75
2021/05/02 05:17:35;;;;;;;1.40;1.40;;;11.20;99.90;;;;;;5048258;28;20710;-74
2021/05/02 05:20:02;;;;;;;1.30;1.30;;;11.20;99.90;;;;;;5054112;28;20199;-75
2021/05/02 05:22:29;;;;;;;1.48;1.38;;;11.30;99.90;;;;;;5060397;28;20222;-75
2021/05/02 05:24:55;;;;;;;1.30;1.30;;;11.30;99.90;;;;;;5049879;28;20229;-75
2021/05/02 05:27:22;;;;;;;1.25;1.25;;;11.30;99.90;;;;;;5054144;28;20223;-75
2021/05/02 05:29:49;;;;;;;1.20;1.20;;;11.20;99.90;;;;;;5058868;28;20202;-75
2021/05/02 05:32:15;;;;;;;1.50;1.50;;;11.30;99.90;;;;;;5054272;28;20624;-75
2021/05/02 05:34:42;;;;;;;1.30;1.30;;;11.30;99.90;;;;;;5046556;28;20218;-75
2021/05/02 05:37:09;;;;;;;1.30;1.30;;;11.40;99.90;;;;;;5048276;28;20696;-75
2021/05/02 05:39:36;;;;;;;1.35;1.35;;;11.50;99.90;;;;;;5050823;28;20191;-75
2021/05/02 05:42:04;;;;;;;1.35;1.35;;;11.50;99.90;;;;;;5052311;28;20226;-75
2021/05/02 05:44:30;;;;;;;1.50;1.50;;;11.40;99.90;;;;;;5046887;28;20493;-75
2021/05/02 05:46:57;;;;;;;1.50;1.50;;;11.40;99.90;;;;;;5047207;28;20221;-75
2021/05/02 05:49:24;;;;;;;1.50;1.45;;;11.40;99.90;;;;;;5046699;28;20285;-75
2021/05/02 05:51:52;;;;;;;1.90;1.80;;;11.40;99.90;;;;;;5045787;28;20219;-75
2021/05/02 05:54:20;;;;;;;1.35;1.35;;;11.50;99.90;;;;;;5049437;28;20223;-75
2021/05/02 05:56:47;;;;;;;1.80;1.70;;;11.50;99.90;;;;;;5050086;28;20269;-75
2021/05/02 05:59:14;;;;;;;2.10;1.98;;;11.50;99.90;;;;;;5046521;28;20201;-74
2021/05/02 06:01:41;;;;;;;1.90;1.80;;;11.50;99.90;;;;;;5042606;28;20238;-75
2021/05/02 06:04:07;;;;;;;1.80;1.70;;;11.60;99.90;;;;;;5044560;28;20327;-75
2021/05/02 06:06:35;;;;;;;1.85;1.75;;;11.70;99.90;;;;;;5049784;28;20235;-74
2021/05/02 06:09:06;;;;;;;1.80;1.70;;;11.60;99.90;;;;;;5055413;28;20193;-75
2021/05/02 06:11:34;;;;;;;1.80;1.70;;;11.60;99.90;;;;;;5054974;28;20617;-75
2021/05/02 06:14:01;;;;;;;1.80;1.70;;;11.50;99.90;;;;;;5050442;28;20702;-75
2021/05/02 06:16:27;;;;;;;1.88;1.40;;;11.50;99.90;;;;;;5056130;28;20285;-74
2021/05/02 06:18:55;;;;;;;1.55;1.55;;;11.60;99.90;;;;;;5058890;28;20206;-75
2021/05/02 06:21:22;;;;;;;1.83;1.73;;;11.60;99.90;;;;;;5058192;28;20202;-75
2021/05/02 06:23:49;;;;;;;1.67;1.50;;;11.70;99.90;;;;;;5058670;28;20203;-75
2021/05/02 06:26:18;;;;;;;2.45;1.40;;;11.80;99.90;;;;;;5055471;28;20197;-75
2021/05/02 06:28:45;;;;;;;1.77;1.67;;;11.80;99.90;;;;;;5057667;28;20227;-74
2021/05/02 06:31:12;;;;;;;1.63;1.52;;;11.80;99.90;;;;;;5056330;28;20321;-75
2021/05/02 06:33:39;;;;;;;1.85;1.75;;;11.70;99.90;;;;;;5052319;28;20272;-75
2021/05/02 06:36:06;;;;;;;1.30;1.30;;;11.70;99.90;;;;;;5051434;28;20252;-75
2021/05/02 06:38:33;;;;;;;1.80;1.70;;;11.70;99.90;;;;;;5064285;28;20221;-75
2021/05/02 06:41:00;;;;;;;1.70;1.70;;;11.70;99.90;;;;;;5053978;28;20617;-75
2021/05/02 06:43:27;;;;;;;1.42;1.33;;;11.80;99.90;;;;;;5050611;28;20271;-75
2021/05/02 06:45:55;;;;;;;1.75;1.65;;;11.90;99.90;;;;;;5053791;28;20252;-75
2021/05/02 06:48:22;;;;;;;1.70;1.60;;;11.90;99.90;;;;;;5058628;28;20220;-75
2021/05/02 06:50:49;;;;;;;1.52;1.52;;;11.90;99.90;;;;;;5049275;28;20200;-76
2021/05/02 06:53:17;;;;;;;2.05;1.80;;;11.90;99.90;;;;;;5061163;28;20225;-75
2021/05/02 06:55:43;;;;;;;1.75;1.70;;;12.00;99.90;;;;;;5063382;22;20234;-74
2021/05/02 06:58:10;;;;;;;1.50;1.50;;;12.10;99.90;;;;;;5039698;28;20227;-75
2021/05/02 07:00:38;;;;;;;1.65;1.60;;;12.20;99.90;;;;;;5045401;28;20249;-80
2021/05/02 07:03:06;;;;;;;1.73;1.60;;;12.40;99.90;;;;;;5043010;28;20350;-75
2021/05/02 07:05:32;;;;;;;1.63;1.55;;;12.60;99.90;;;;;;5043051;28;20307;-75
2021/05/02 07:07:59;;;;;;;1.30;1.30;;;12.70;99.90;;;;;;5045027;28;20229;-77
2021/05/02 07:10:26;;;;;;;1.52;1.50;;;12.90;99.90;;;;;;5036699;28;20213;-75
2021/05/02 07:12:52;;;;;;;1.40;1.40;;;13.10;99.90;;;;;;5041572;28;20233;-76
2021/05/02 07:15:19;;;;;;;1.50;1.45;;;13.10;99.90;;;;;;5045294;28;20211;-78
2021/05/02 07:17:46;;;;;;;1.60;1.50;;;13.20;99.90;;;;;;5044083;28;20226;-78
2021/05/02 07:20:16;;;;;;;1.33;1.23;;;13.20;99.90;;;;;;5049442;28;20588;-76
2021/05/02 07:22:45;;;;;;;1.30;1.20;;;13.20;99.90;;;;;;5044420;28;20276;-75
2021/05/02 07:25:12;;;;;;;1.33;1.33;;;13.20;99.90;;;;;;5047125;28;20218;-78
2021/05/02 07:27:39;;;;;;;1.60;1.50;;;13.00;99.90;;;;;;5050086;28;20856;-76
2021/05/02 07:30:07;;;;;;;1.50;1.45;;;12.90;99.90;;;;;;5050347;28;20217;-73
2021/05/02 07:32:33;;;;;;;1.60;1.50;;;12.80;99.90;;;;;;5045621;28;20837;-76
2021/05/02 07:35:00;;;;;;;1.65;1.45;;;12.80;99.90;;;;;;5046347;28;20215;-75
2021/05/02 07:37:27;;;;;;;2.80;1.73;;;12.80;99.90;;;;;;5044109;28;20368;-79
2021/05/02 07:39:54;;;;;;;1.40;1.30;;;12.90;99.90;;;;;;5043846;28;20195;-75
2021/05/02 07:42:21;;;;;;;1.20;1.20;;;13.00;99.90;;;;;;5041601;28;20249;-77
2021/05/02 07:44:48;;;;;;;2.72;1.85;;;13.00;99.90;;;;;;5045630;28;20225;-75
2021/05/02 07:47:14;;;;;;;1.63;1.33;;;13.10;99.90;;;;;;5050837;28;20311;-74
2021/05/02 07:49:41;;;;;;;1.15;1.15;;;13.20;99.90;;;;;;5045319;28;20205;-74
2021/05/02 07:52:07;;;;;;;1.55;1.55;;;13.40;99.90;;;;;;5042169;28;20219;-74
2021/05/02 07:54:35;;;;;;;1.35;1.25;;;13.60;99.90;;;;;;5049337;28;20194;-76
2021/05/02 07:57:01;;;;;;;1.23;1.23;;;13.60;99.90;;;;;;5049718;28;20705;-76
2021/05/02 07:59:28;;;;;;;1.42;1.42;;;13.80;99.90;;;;;;5041778;28;20255;-75
2021/05/02 08:01:55;;;;;;;1.33;1.33;;;14.30;99.90;;;;;;5040828;28;20191;-76
2021/05/02 08:04:21;;;;;;;1.10;1.10;;;14.40;99.90;;;;;;5040861;28;20223;-76
2021/05/02 08:06:48;;;;;;;1.30;1.20;;;14.40;99.90;;;;;;5042006;28;20241;-76
2021/05/02 08:09:15;;;;;;;1.40;1.30;;;14.30;99.90;;;;;;5045501;28;20222;-79
2021/05/02 08:11:42;;;;;;;1.40;1.30;;;14.20;99.90;;;;;;5044166;28;20268;-79
2021/05/02 08:14:09;;;;;;;1.15;1.15;;;14.00;99.90;;;;;;5044285;28;20697;-76
2021/05/02 08:16:36;;;;;;;1.40;1.40;;;14.00;99.90;;;;;;5041347;28;20237;-77
2021/05/02 08:19:03;;;;;;;1.38;1.27;;;13.90;99.90;;;;;;5043064;28;20223;-78
2021/05/02 08:21:30;;;;;;;1.10;1.10;;;13.90;99.90;;;;;;5051736;28;20206;-77
2021/05/02 08:23:57;;;;;;;1.33;1.23;;;13.90;99.90;;;;;;5051468;28;20226;-77
2021/05/02 08:26:23;;;;;;;1.35;1.35;;;14.00;99.90;;;;;;5054330;28;20218;-77
2021/05/02 08:28:51;;;;;;;1.50;1.40;;;14.00;99.90;;;;;;5055007;28;20635;-76
2021/05/02 08:31:17;;;;;;;3.47;1.17;;;14.10;99.90;;;;;;5051795;28;20206;-79
2021/05/02 08:33:44;;;;;;;0.98;0.98;;;14.10;99.90;;;;;;5050450;28;20223;-76
2021/05/02 08:36:11;;;;;;;1.08;1.08;;;14.10;99.90;;;;;;5056158;28;20207;-77
2021/05/02 08:38:37;;;;;;;1.08;1.08;;;14.20;99.90;;;;;;5055419;28;20222;-79
2021/05/02 08:41:06;;;;;;;2.53;1.00;;;14.20;99.90;;;;;;5056946;28;20203;-81
2021/05/02 08:43:34;;;;;;;1.23;1.00;;;14.20;99.90;;;;;;5061451;28;20225;-75
2021/05/02 08:46:02;;;;;;;1.65;1.55;;;14.30;99.90;;;;;;5058490;28;20231;-80
2021/05/02 08:48:29;;;;;;;1.55;1.30;;;14.50;99.90;;;;;;5057300;28;20215;-76
2021/05/02 08:50:58;;;;;;;1.40;1.30;;;14.60;99.90;;;;;;5062943;28;20771;-79
2021/05/02 08:53:25;;;;;;;1.15;1.08;;;14.60;99.90;;;;;;5061434;28;20211;-76
2021/05/02 08:55:52;;;;;;;1.98;1.00;;;14.60;99.90;;;;;;5059486;28;20312;-74
2021/05/02 08:58:20;;;;;;;1.00;1.00;;;14.70;99.90;;;;;;5062621;28;20222;-78
2021/05/02 09:00:48;;;;;;;1.10;1.10;;;14.80;99.90;;;;;;5061582;28;20202;-74
2021/05/02 09:03:16;;;;;;;0.95;0.95;;;14.80;99.90;;;;;;5065317;28;20226;-75
2021/05/02 09:05:44;;;;;;;0.80;0.80;;;14.80;99.90;;;;;;5060137;28;20219;-76
2021/05/02 09:08:11;;;;;;;1.05;1.00;;;14.80;99.90;;;;;;5059765;28;20222;-79
2021/05/02 09:10:38;;;;;;;1.00;1.00;;;14.70;99.90;;;;;;5060808;28;20261;-76
2021/05/02 09:13:12;;;;;;;1.00;0.90;;;14.70;99.90;;;;;;5060540;28;20226;-78
2021/05/02 09:15:40;;;;;;;1.00;1.00;;;14.70;99.90;;;;;;5063524;28;20206;-77
2021/05/02 09:18:14;;;;;;;0.82;0.82;;;14.80;99.90;;;;;;5061568;28;20222;-74
2021/05/02 09:20:48;;;;;;;1.05;1.05;;;14.90;99.90;;;;;;5055920;28;20198;-73
2021/05/02 09:23:18;;;;;;;0.90;0.90;;;15.10;99.90;;;;;;5058800;28;20219;-76
2021/05/02 09:25:49;;;;;;;0.85;0.85;;;15.20;99.90;;;;;;5062649;28;20240;-76
2021/05/02 09:28:16;;;;;;;1.20;1.10;;;15.20;99.90;;;;;;5063861;28;20712;-79
2021/05/02 09:30:43;;;;;;;1.02;1.02;;;15.30;99.90;;;;;;5058585;28;20202;-77
2021/05/02 09:33:24;;;;;;;1.10;1.10;;;15.30;99.90;;;;;;5062892;28;20222;-76
2021/05/02 09:35:52;;;;;;;0.82;0.82;;;15.50;99.90;;;;;;5061797;28;20215;-76
2021/05/02 09:38:19;;;;;;;0.85;0.85;;;15.70;99.90;;;;;;5061079;28;21208;-73
2021/05/02 09:40:47;;;;;;;1.60;1.50;;;15.80;99.90;;;;;;5065062;28;20207;-73
2021/05/02 09:43:36;;;;;;;1.60;1.50;;;15.90;99.90;;;;;;5061623;28;20218;-73
2021/05/02 09:46:27;;;;;;;0.95;0.95;;;16.00;99.90;;;;;;5058037;28;20257;-73
2021/05/02 09:49:10;;;;;;;0.90;0.90;;;16.10;99.90;;;;;;5060705;28;20225;-76
2021/05/02 09:51:39;;;;;;;1.10;1.10;;;16.20;99.90;;;;;;5052398;28;20203;-76
2021/05/02 09:54:09;;;;;;;1.05;1.05;;;16.30;99.90;;;;;;5057612;28;20656;-75
2021/05/02 09:56:38;;;;;;;0.90;0.90;;;16.60;99.90;;;;;;5057310;28;20272;-74
2021/05/02 09:59:06;;;;;;;0.98;0.98;;;16.80;99.90;;;;;;5061541;28;20600;-74
2021/05/02 10:01:33;;;;;;;1.00;1.00;;;17.00;99.90;;;;;;5059507;28;20198;-75
2021/05/02 10:04:00;;;;;;;1.10;1.10;;;17.20;99.90;;;;;;5063552;28;20214;-75
2021/05/02 10:06:35;;;;;;;0.90;0.90;;;17.50;99.90;;;;;;5053369;28;20218;-74
2021/05/02 10:09:07;;;;;;;1.80;1.70;;;17.80;99.90;;;;;;5060344;28;20218;-73
2021/05/02 10:11:35;;;;;;;1.55;1.45;;;18.20;99.90;;;;;;5058080;28;20302;-73
2021/05/02 10:14:03;;;;;;;0.88;0.88;;;18.70;99.90;;;;;;5061395;28;20233;-74
2021/05/02 10:16:30;;;;;;;0.90;0.90;;;18.80;99.90;;;;;;5050555;28;20672;-74
2021/05/02 10:18:59;;;;;;;0.77;0.77;;;18.40;99.90;;;;;;5055023;28;20739;-74
2021/05/02 10:21:26;;;;;;;1.25;0.90;;;17.90;99.90;;;;;;5056850;28;20199;-74
2021/05/02 10:23:53;;;;;;;0.80;0.80;;;17.80;99.90;;;;;;5058304;28;20222;-75
2021/05/02 10:26:20;;;;;;;0.77;0.77;;;18.20;99.90;;;;;;5062324;28;20222;-74
2021/05/02 10:28:48;;;;;;;0.70;0.70;;;18.70;99.90;;;;;;5061468;28;20272;-74
2021/05/02 10:31:15;;;;;;;1.20;0.77;;;18.70;99.90;;;;;;5058174;28;20195;-74
2021/05/02 10:33:44;;;;;;;1.10;0.80;;;18.90;99.90;;;;;;5062894;28;20275;-74
2021/05/02 10:36:12;;;;;;;0.80;0.80;;;18.90;99.90;;;;;;5060067;28;20597;-75
2021/05/02 10:38:47;;;;;;;0.80;0.80;;;19.00;99.90;;;;;;5061676;28;20221;-74
2021/05/02 10:41:31;;;;;;;1.05;1.05;;;19.40;99.90;;;;;;5057781;28;20202;-74
2021/05/02 10:43:59;;;;;;;1.48;1.38;;;19.80;99.90;;;;;;5050396;28;20313;-73
2021/05/02 10:46:45;;;;;;;1.40;1.30;;;20.20;99.90;;;;;;5058658;28;20228;-73
2021/05/02 10:49:32;;;;;;;0.90;0.90;;;20.50;99.90;;;;;;5057602;28;20225;-74
2021/05/02 10:52:29;;;;;;;0.80;0.80;;;20.20;99.90;;;;;;5056638;28;20699;-74
2021/05/02 10:55:07;;;;;;;0.77;0.77;;;20.20;99.90;;;;;;5057417;28;20222;-73
2021/05/02 10:57:35;;;;;;;0.70;0.70;;;20.40;99.90;;;;;;5055449;28;20198;-74
2021/05/02 11:00:06;;;;;;;2.55;0.60;;;20.00;99.90;;;;;;5060380;28;20243;-73
2021/05/02 11:02:38;;;;;;;0.90;0.90;;;19.50;99.90;;;;;;5061522;28;20191;-74
2021/05/02 11:05:06;;;;;;;0.77;0.77;;;19.20;99.90;;;;;;5059593;28;20236;-74
2021/05/02 11:07:37;;;;;;;0.68;0.68;;;19.30;99.90;;;;;;5059960;28;20263;-73
2021/05/02 11:10:06;;;;;;;0.60;0.60;;;19.40;99.90;;;;;;5059001;28;20233;-74
2021/05/02 11:12:34;;;;;;;0.85;0.60;;;19.40;99.90;;;;;;5062728;28;20198;-74
2021/05/02 11:15:01;;;;;;;0.85;0.80;;;19.20;99.90;;;;;;5058782;28;20215;-74
2021/05/02 11:17:38;;;;;;;0.82;0.82;;;19.10;99.90;;;;;;5063673;28;20276;-74
2021/05/02 11:20:06;;;;;;;0.90;0.90;;;19.20;99.90;;;;;;5044161;28;20218;-73
2021/05/02 11:22:47;;;;;;;0.70;0.70;;;19.30;99.90;;;;;;5048522;28;20203;-74
2021/05/02 11:25:16;;;;;;;0.73;0.73;;;19.60;99.90;;;;;;5050340;28;20279;-74
2021/05/02 11:27:58;;;;;;;0.70;0.70;;;19.80;99.90;;;;;;5049734;28;20214;-74
2021/05/02 11:30:26;;;;;;;0.73;0.73;;;20.10;99.90;;;;;;5058870;28;20717;-74
2021/05/02 11:32:55;;;;;;;1.20;0.80;;;20.30;99.90;;;;;;5049214;28;20221;-73
2021/05/02 11:35:52;;;;;;;0.95;0.90;;;20.30;99.90;;;;;;5044330;28;20254;-74
2021/05/02 11:38:34;;;;;;;0.70;0.70;;;20.00;99.90;;;;;;5042890;28;20286;-74
2021/05/02 11:41:06;;;;;;;0.70;0.70;;;19.90;99.90;;;;;;5045641;28;20215;-74
2021/05/02 11:43:34;;;;;;;1.65;0.80;;;19.60;99.90;;;;;;5044412;28;20195;-74
2021/05/02 11:46:03;;;;;;;0.63;0.63;;;19.60;99.90;;;;;;5047272;28;21953;-74
2021/05/02 11:48:31;;;;;;;1.88;0.80;;;19.80;99.90;;;;;;5048060;28;20207;-74
2021/05/02 11:51:00;;;;;;;0.90;0.90;;;20.10;99.90;;;;;;5048689;28;20772;-74
2021/05/02 11:53:35;;;;;;;0.70;0.70;;;20.40;99.90;;;;;;5048594;28;20203;-73
2021/05/02 11:56:02;;;;;;;0.60;0.60;;;20.60;99.90;;;;;;5048160;28;20230;-74
2021/05/02 11:58:28;;;;;;;0.68;0.68;;;20.80;99.90;;;;;;5048680;28;20195;-74
2021/05/02 12:00:56;;;;;;;0.73;0.73;;;21.00;99.90;;;;;;5049260;28;20232;-74
2021/05/02 12:03:37;;;;;;;0.80;0.80;;;21.20;99.90;;;;;;5050933;28;20202;-74
2021/05/02 12:06:04;;;;;;;0.70;0.70;;;21.00;99.90;;;;;;5044877;28;20226;-74
2021/05/02 12:08:31;;;;;;;1.27;1.17;;;20.80;99.90;;;;;;5047261;28;20191;-74
2021/05/02 12:10:59;;;;;;;0.90;0.90;;;20.10;99.90;;;;;;5044610;28;20222;-74
2021/05/02 12:13:34;;;;;;;5.95;4.20;;;19.50;99.90;;;;;;5052310;28;20193;-74
2021/05/02 12:16:07;;;;;;;2.03;1.77;;;19.10;99.90;;;;;;5047333;28;20229;-74
2021/05/02 12:18:49;;;;;;;1.80;1.70;;;19.00;99.90;;;;;;5047026;28;20481;-73
2021/05/02 12:21:19;;;;;;;0.90;0.90;;;19.00;99.90;;;;;;5054579;28;20294;-74
2021/05/02 12:23:47;;;;;;;0.90;0.90;;;19.50;99.90;;;;;;5053794;28;20207;-74
2021/05/02 12:26:15;;;;;;;0.70;0.70;;;20.20;99.90;;;;;;5048080;28;20725;-74
2021/05/02 12:28:42;;;;;;;0.60;0.60;;;20.50;99.90;;;;;;5053411;28;20210;-74
2021/05/02 12:31:12;;;;;;;0.60;0.60;;;20.60;99.90;;;;;;5056961;28;20221;-74
2021/05/02 12:33:40;;;;;;;0.50;0.50;;;20.50;99.90;;;;;;5056532;28;20198;-74
2021/05/02 12:36:09;;;;;;;0.60;0.60;;;20.70;99.90;;;;;;5052180;28;20226;-74
2021/05/02 12:38:36;;;;;;;0.50;0.50;;;20.60;99.90;;;;;;5051955;28;20658;-74
2021/05/02 12:41:03;;;;;;;0.85;0.60;;;20.60;99.90;;;;;;5051466;28;20215;-74
2021/05/02 12:43:32;;;;;;;0.60;0.60;;;20.90;99.90;;;;;;5049537;28;20234;-74
2021/05/02 12:45:59;;;;;;;0.50;0.50;;;21.20;99.90;;;;;;5048461;28;20227;-75
2021/05/02 12:48:29;;;;;;;0.60;0.60;;;21.20;99.90;;;;;;5049850;28;20194;-74
2021/05/02 12:50:57;;;;;;;0.68;0.68;;;20.60;99.90;;;;;;5050277;28;20222;-75
2021/05/02 12:53:37;;;;;;;0.70;0.70;;;20.00;99.90;;;;;;5050413;28;20199;-74